createdAt,value
2022-11-26T00:01:20.409Z,219.50
2022-11-26T00:04:47.219Z,231.60
2022-11-26T00:08:21.702Z,266.90
2022-11-26T00:11:48.525Z,262.30
2022-11-26T00:15:21.901Z,205.80
2022-11-26T00:18:48.718Z,277.30
2022-11-26T00:22:24.704Z,241.30
2022-11-26T00:25:54.943Z,233.50
2022-11-26T00:29:21.635Z,277.40
2022-11-26T00:32:48.460Z,214.20
2022-11-26T00:36:22.423Z,267.80
2022-11-26T00:39:50.103Z,229.80
2022-11-26T00:43:18.929Z,286.60
2022-11-26T00:46:46.136Z,278.30
2022-11-26T00:50:16.870Z,247.90
2022-11-26T00:53:44.696Z,307.50
2022-11-26T00:57:12.714Z,284.30
2022-11-26T01:00:39.389Z,261.10
2022-11-26T01:04:06.792Z,269.70
2022-11-26T01:07:33.604Z,249.40
2022-11-26T01:11:01.781Z,192.40
2022-11-26T01:14:28.709Z,282.50
2022-11-26T01:17:56.267Z,223.20
2022-11-26T01:21:23.743Z,258.70
2022-11-26T01:24:51.501Z,257.90
2022-11-26T01:28:20.008Z,261.40
2022-11-26T01:31:47.303Z,273.20
2022-11-26T01:35:15.599Z,249.50
2022-11-26T01:38:42.295Z,273.00
2022-11-26T01:42:16.604Z,217.40
2022-11-26T01:45:43.724Z,254.20
2022-11-26T01:49:23.904Z,216.70
2022-11-26T01:52:50.705Z,242.90
2022-11-26T01:56:28.373Z,262.10
2022-11-26T01:59:59.296Z,186.10
2022-11-26T02:03:28.211Z,254.10
2022-11-26T02:06:57.908Z,215.10
2022-11-26T02:10:24.717Z,184.60
2022-11-26T02:13:55.859Z,229.80
2022-11-26T02:17:29.841Z,237.70
2022-11-26T02:21:02.070Z,247.30
2022-11-26T02:24:49.597Z,229.10
2022-11-26T02:28:32.488Z,220.30
2022-11-26T02:32:06.999Z,260.50
2022-11-26T02:35:42.513Z,223.70
2022-11-26T02:39:17.092Z,271.20
2022-11-26T02:42:44.139Z,322.30
2022-11-26T02:46:15.650Z,275.30
2022-11-26T02:49:45.607Z,238.40
2022-11-26T02:53:15.089Z,212.30
2022-11-26T02:56:42.678Z,232.10
2022-11-26T03:00:12.004Z,291.40
2022-11-26T03:03:44.206Z,232.70
2022-11-26T03:07:15.010Z,234.30
2022-11-26T03:10:41.875Z,226.50
2022-11-26T03:14:09.151Z,227.10
2022-11-26T03:17:36.282Z,237.90
2022-11-26T03:21:03.225Z,206.90
2022-11-26T03:24:30.610Z,219.80
2022-11-26T03:27:57.352Z,221.60
2022-11-26T03:31:24.987Z,222.70
2022-11-26T03:34:51.786Z,204.50
2022-11-26T03:38:18.960Z,198.00
2022-11-26T03:41:45.908Z,217.90
2022-11-26T03:45:13.886Z,208.90
2022-11-26T03:48:40.937Z,206.80
2022-11-26T03:52:07.955Z,189.70
2022-11-26T03:55:35.001Z,194.10
2022-11-26T03:59:01.874Z,185.70
2022-11-26T04:02:28.854Z,236.20
2022-11-26T04:05:55.765Z,223.40
2022-11-26T04:09:22.938Z,206.20
2022-11-26T04:12:50.059Z,209.10
2022-11-26T04:16:17.120Z,192.70
2022-11-26T04:19:43.814Z,198.00
2022-11-26T04:23:11.246Z,154.10
2022-11-26T04:26:38.070Z,201.50
2022-11-26T04:30:05.374Z,196.60
2022-11-26T04:33:32.150Z,194.80
2022-11-26T04:36:58.899Z,212.30
2022-11-26T04:40:25.781Z,237.60
2022-11-26T04:43:52.510Z,187.90
2022-11-26T04:47:19.134Z,187.30
2022-11-26T04:50:46.221Z,175.10
2022-11-26T04:54:13.926Z,170.20
2022-11-26T04:57:40.843Z,142.00
2022-11-26T05:01:08.051Z,188.40
2022-11-26T05:04:35.280Z,172.30
2022-11-26T05:08:02.023Z,175.10
2022-11-26T05:11:28.783Z,173.80
2022-11-26T05:14:55.527Z,161.90
2022-11-26T05:18:22.360Z,140.70
2022-11-26T05:21:49.432Z,154.00
2022-11-26T05:25:16.624Z,186.90
2022-11-26T05:28:43.950Z,168.80
2022-11-26T05:32:10.686Z,168.80
2022-11-26T05:35:38.906Z,151.50
2022-11-26T05:39:06.536Z,171.40
2022-11-26T05:42:33.178Z,176.80
2022-11-26T05:46:03.837Z,175.00
2022-11-26T05:49:30.785Z,170.70
2022-11-26T05:52:57.426Z,192.90
2022-11-26T05:56:24.083Z,204.00
2022-11-26T05:59:51.445Z,210.40
2022-11-26T06:03:20.356Z,199.40
2022-11-26T06:06:47.492Z,173.00
2022-11-26T06:10:15.446Z,182.40
2022-11-26T06:13:42.525Z,191.60
2022-11-26T06:17:09.279Z,185.50
2022-11-26T06:20:36.151Z,197.20
2022-11-26T06:24:02.839Z,190.70
2022-11-26T06:27:29.528Z,207.20
2022-11-26T06:30:56.180Z,211.90
2022-11-26T06:34:23.131Z,178.60
2022-11-26T06:37:50.173Z,196.40
2022-11-26T06:41:16.897Z,172.20
2022-11-26T06:44:43.620Z,189.90
2022-11-26T06:48:10.327Z,185.90
2022-11-26T06:51:37.037Z,182.60
2022-11-26T06:55:04.094Z,195.10
2022-11-26T06:58:30.836Z,171.30
2022-11-26T07:01:58.378Z,185.60
2022-11-26T07:05:25.358Z,163.90
2022-11-26T07:08:53.985Z,157.10
2022-11-26T07:12:21.114Z,157.90
2022-11-26T07:15:47.912Z,184.40
2022-11-26T07:19:16.486Z,177.40
2022-11-26T07:22:43.226Z,173.90
2022-11-26T07:26:10.951Z,160.60
2022-11-26T07:29:37.710Z,147.00
2022-11-26T07:33:04.349Z,177.80
2022-11-26T07:36:32.013Z,179.40
2022-11-26T07:39:58.740Z,172.00
2022-11-26T07:43:25.513Z,140.70
2022-11-26T07:46:52.374Z,160.30
2022-11-26T07:50:20.085Z,160.30
2022-11-26T07:53:46.910Z,168.60
2022-11-26T07:57:14.240Z,170.70
2022-11-26T08:00:41.073Z,164.10
2022-11-26T08:04:08.733Z,162.00
2022-11-26T08:07:37.228Z,156.80
2022-11-26T08:11:04.735Z,155.00
2022-11-26T08:14:31.356Z,165.40
2022-11-26T08:17:58.471Z,168.10
2022-11-26T08:21:26.296Z,142.00
2022-11-26T08:24:53.227Z,163.60
2022-11-26T08:28:20.382Z,148.50
2022-11-26T08:31:48.894Z,149.80
2022-11-26T08:35:16.526Z,140.70
2022-11-26T08:38:43.705Z,144.80
2022-11-26T08:42:10.728Z,122.90
2022-11-26T08:45:37.422Z,118.80
2022-11-26T08:49:05.046Z,118.80
2022-11-26T08:52:32.164Z,116.60
2022-11-26T08:56:03.376Z,125.00
2022-11-26T08:59:30.022Z,128.80
2022-11-26T09:02:56.808Z,147.70
2022-11-26T09:06:25.974Z,137.20
2022-11-26T09:09:52.566Z,131.40
2022-11-26T09:13:21.188Z,150.20
2022-11-26T09:16:48.831Z,153.80
2022-11-26T09:20:15.942Z,158.90
2022-11-26T09:23:43.088Z,169.60
2022-11-26T09:27:10.942Z,185.50
2022-11-26T09:30:37.789Z,139.40
2022-11-26T09:34:04.845Z,183.30
2022-11-26T09:37:33.658Z,126.10
2022-11-26T09:41:11.656Z,146.00
2022-11-26T09:45:05.348Z,135.10
2022-11-26T09:48:35.037Z,112.80
2022-11-26T09:55:31.449Z,182.00
2022-11-26T09:59:01.898Z,135.80
2022-11-26T10:02:28.881Z,136.60
2022-11-26T10:06:01.733Z,134.10
2022-11-26T10:09:44.173Z,123.50
2022-11-26T10:13:23.437Z,110.30
2022-11-26T10:17:00.737Z,92.40
2022-11-26T10:20:59.279Z,104.10
2022-11-26T10:24:31.238Z,119.10
2022-11-26T10:28:00.237Z,132.70
2022-11-26T10:31:32.529Z,119.30
2022-11-26T10:35:00.249Z,116.30
2022-11-26T10:38:27.280Z,124.50
2022-11-26T10:41:53.937Z,124.40
2022-11-26T10:45:23.555Z,141.50
2022-11-26T10:48:50.314Z,118.50
2022-11-26T10:52:21.382Z,116.20
2022-11-26T10:55:48.450Z,125.80
2022-11-26T10:59:25.030Z,119.20
2022-11-26T11:02:52.148Z,120.50
2022-11-26T11:06:38.293Z,105.50
2022-11-26T11:10:18.046Z,122.80
2022-11-26T11:13:47.126Z,114.50
2022-11-26T11:17:36.376Z,111.80
2022-11-26T11:21:05.001Z,113.20
2022-11-26T11:24:31.975Z,110.50
2022-11-26T11:28:08.976Z,110.90
2022-11-26T11:31:47.840Z,112.90
2022-11-26T11:35:26.812Z,99.40
2022-11-26T11:38:56.800Z,112.20
2022-11-26T11:42:28.358Z,101.10
2022-11-26T11:46:11.079Z,100.20
2022-11-26T11:49:57.284Z,123.20
2022-11-26T11:53:40.425Z,157.90
2022-11-26T11:57:13.826Z,134.00
2022-11-26T12:00:48.663Z,128.60
2022-11-26T12:04:32.330Z,105.60
2022-11-26T12:08:08.565Z,105.20
2022-11-26T12:11:43.281Z,107.40
2022-11-26T12:15:18.199Z,156.10
2022-11-26T12:18:52.530Z,157.80
2022-11-26T12:22:25.489Z,134.30
2022-11-26T12:25:58.401Z,88.90
2022-11-26T12:29:34.764Z,108.70
2022-11-26T12:33:06.511Z,93.40
2022-11-26T12:36:41.273Z,107.00
2022-11-26T12:40:20.631Z,94.70
2022-11-26T12:43:54.381Z,106.40
2022-11-26T12:47:27.290Z,89.30
2022-11-26T12:50:59.877Z,94.80
2022-11-26T12:54:32.182Z,102.50
2022-11-26T12:58:03.204Z,88.10
2022-11-26T13:01:32.100Z,120.30
2022-11-26T13:05:00.111Z,81.30
2022-11-26T13:08:39.866Z,85.40
2022-11-26T13:15:44.089Z,94.70
2022-11-26T13:19:20.009Z,84.00
2022-11-26T13:23:00.988Z,97.00
2022-11-26T13:26:47.037Z,93.80
2022-11-26T13:30:18.633Z,100.50
2022-11-26T13:34:07.843Z,90.10
2022-11-26T13:37:54.918Z,95.40
2022-11-26T13:41:36.486Z,87.30
2022-11-26T13:45:30.403Z,89.90
2022-11-26T13:49:03.605Z,89.70
2022-11-26T13:52:36.938Z,97.20
2022-11-26T13:56:07.565Z,91.90
2022-11-26T13:59:36.878Z,98.70
2022-11-26T14:03:04.681Z,88.50
2022-11-26T14:06:31.916Z,85.90
2022-11-26T14:10:01.199Z,88.60
2022-11-26T14:13:28.608Z,88.80
2022-11-26T14:17:22.332Z,109.80
2022-11-26T14:21:15.234Z,96.50
2022-11-26T14:24:59.728Z,110.30
2022-11-26T14:28:27.966Z,108.10
2022-11-26T14:31:56.405Z,96.30
2022-11-26T14:35:33.616Z,93.90
2022-11-26T14:39:12.941Z,101.90
2022-11-26T14:42:40.943Z,91.00
2022-11-26T14:46:13.286Z,90.50
2022-11-26T14:49:42.829Z,101.80
2022-11-26T14:53:11.866Z,95.10
2022-11-26T14:56:46.145Z,117.50
2022-11-26T15:00:25.849Z,152.20
2022-11-26T15:04:02.098Z,170.00
2022-11-26T15:07:30.281Z,142.80
2022-11-26T15:11:00.125Z,170.60
2022-11-26T15:14:32.484Z,153.70
2022-11-26T15:18:03.398Z,146.20
2022-11-26T15:21:31.021Z,142.20
2022-11-26T15:24:58.278Z,164.30
2022-11-26T15:28:26.108Z,185.50
2022-11-26T15:31:52.737Z,172.50
2022-11-26T15:35:19.756Z,197.60
2022-11-26T15:39:04.068Z,192.00
2022-11-26T15:42:32.468Z,205.20
2022-11-26T15:46:03.488Z,298.10
2022-11-26T15:49:34.139Z,253.00
2022-11-26T15:53:05.641Z,211.10
2022-11-26T15:56:34.953Z,198.90
2022-11-26T16:00:05.293Z,296.40
2022-11-26T16:03:47.852Z,222.90
2022-11-26T16:07:17.889Z,190.10
2022-11-26T16:10:55.343Z,226.80
2022-11-26T16:14:29.768Z,183.30
2022-11-26T16:17:57.039Z,170.40
2022-11-26T16:21:27.851Z,159.80
2022-11-26T16:25:05.372Z,167.80
2022-11-26T16:28:31.959Z,159.00
2022-11-26T16:31:59.041Z,161.00
2022-11-26T16:35:44.811Z,220.40
2022-11-26T16:39:13.783Z,198.40
2022-11-26T16:42:40.580Z,219.20
2022-11-26T16:46:14.779Z,178.10
2022-11-26T16:49:41.491Z,186.40
2022-11-26T16:53:09.312Z,174.50
2022-11-26T16:56:38.361Z,175.30
2022-11-26T17:00:09.694Z,183.00
2022-11-26T17:03:36.617Z,168.20
2022-11-26T17:07:04.022Z,192.90
2022-11-26T17:10:32.262Z,218.00
2022-11-26T17:13:59.197Z,232.30
2022-11-26T17:17:30.483Z,221.80
2022-11-26T17:20:57.876Z,219.90
2022-11-26T17:24:30.002Z,219.80
2022-11-26T17:27:58.960Z,214.70
2022-11-26T17:31:25.850Z,195.70
2022-11-26T17:34:52.645Z,177.20
2022-11-26T17:38:21.362Z,176.20
2022-11-26T17:41:48.064Z,177.90
2022-11-26T17:45:16.082Z,175.70
2022-11-26T17:48:42.900Z,169.90
2022-11-26T17:52:10.043Z,165.60
2022-11-26T17:55:37.064Z,164.30
2022-11-26T17:59:04.429Z,158.70
2022-11-26T18:02:31.407Z,168.30
2022-11-26T18:05:58.305Z,164.20
2022-11-26T18:09:25.767Z,163.20
2022-11-26T18:12:55.393Z,166.10
2022-11-26T18:19:48.245Z,146.40
2022-11-26T18:23:15.269Z,145.80
2022-11-26T18:26:42.511Z,141.80
2022-11-26T18:30:11.245Z,146.20
2022-11-26T18:33:38.095Z,169.40
2022-11-26T18:37:04.921Z,164.90
2022-11-26T18:40:32.156Z,164.30
2022-11-26T18:43:58.935Z,154.40
2022-11-26T18:47:25.815Z,163.80
2022-11-26T18:50:59.847Z,187.90
2022-11-26T18:54:26.965Z,200.90
2022-11-26T18:57:53.683Z,167.80
2022-11-26T19:01:22.636Z,164.90
2022-11-26T19:04:49.449Z,158.70
2022-11-26T19:08:16.868Z,146.20
2022-11-26T19:11:43.786Z,140.50
2022-11-26T19:15:11.632Z,142.30
2022-11-26T19:18:38.736Z,130.10
2022-11-26T19:22:05.576Z,149.80
2022-11-26T19:25:33.274Z,144.00
2022-11-26T19:29:05.059Z,133.90
2022-11-26T19:32:32.345Z,136.00
2022-11-26T19:35:59.556Z,149.40
2022-11-26T19:39:26.540Z,158.00
2022-11-26T19:42:53.265Z,148.20
2022-11-26T19:46:21.770Z,156.10
2022-11-26T19:49:48.865Z,145.80
2022-11-26T19:53:15.683Z,139.40
2022-11-26T19:56:43.083Z,130.60
2022-11-26T20:00:13.964Z,121.70
2022-11-26T20:03:40.801Z,140.60
2022-11-26T20:07:07.683Z,134.90
2022-11-26T20:10:34.528Z,164.30
2022-11-26T20:14:02.393Z,139.90
2022-11-26T20:17:29.563Z,159.80
2022-11-26T20:21:03.750Z,218.90
2022-11-26T20:24:30.530Z,233.60
2022-11-26T20:27:59.888Z,217.70
2022-11-26T20:31:27.353Z,168.00
2022-11-26T20:34:54.204Z,128.60
2022-11-26T20:38:21.095Z,91.80
2022-11-26T20:41:48.292Z,99.80
2022-11-26T20:45:15.496Z,83.30
2022-11-26T20:48:44.057Z,77.60
2022-11-26T20:52:10.793Z,90.00
2022-11-26T20:55:37.445Z,85.30
2022-11-26T20:59:04.670Z,78.70
2022-11-26T21:02:31.777Z,73.10
2022-11-26T21:06:02.245Z,73.80
2022-11-26T21:09:29.289Z,80.40
2022-11-26T21:12:56.584Z,77.30
2022-11-26T21:16:23.606Z,74.40
2022-11-26T21:19:51.627Z,82.60
2022-11-26T21:23:18.626Z,84.90
2022-11-26T21:26:45.499Z,91.30
2022-11-26T21:30:14.081Z,84.50
2022-11-26T21:33:40.786Z,94.00
2022-11-26T21:37:07.653Z,86.60
2022-11-26T21:40:34.837Z,100.10
2022-11-26T21:44:03.696Z,94.60
2022-11-26T21:47:30.707Z,105.30
2022-11-26T21:50:57.440Z,98.80
2022-11-26T21:54:24.274Z,101.80
2022-11-26T21:57:51.085Z,98.30
2022-11-26T22:01:19.631Z,111.40
2022-11-26T22:04:46.632Z,115.60
2022-11-26T22:08:13.694Z,104.30
2022-11-26T22:11:42.480Z,112.70
2022-11-26T22:15:10.940Z,103.70
2022-11-26T22:18:39.318Z,96.40
2022-11-26T22:22:06.353Z,108.20
2022-11-26T22:25:34.808Z,109.60
2022-11-26T22:29:02.389Z,102.20
2022-11-26T22:32:29.864Z,103.90
2022-11-26T22:35:56.478Z,107.00
2022-11-26T22:39:23.404Z,111.60
2022-11-26T22:42:50.190Z,112.40
2022-11-26T22:46:18.865Z,108.70
2022-11-26T22:49:45.588Z,127.00
2022-11-26T22:53:12.390Z,120.30
2022-11-26T22:56:40.048Z,120.60
2022-11-26T23:00:10.834Z,112.90
2022-11-26T23:03:38.632Z,118.60
2022-11-26T23:07:05.609Z,130.10
2022-11-26T23:10:32.551Z,136.80
2022-11-26T23:13:59.389Z,127.80
2022-11-26T23:17:26.276Z,130.00
2022-11-26T23:21:02.305Z,142.40
2022-11-26T23:24:30.104Z,112.80
2022-11-26T23:27:57.173Z,123.80
2022-11-26T23:31:25.933Z,127.40
2022-11-26T23:34:52.867Z,125.80
2022-11-26T23:38:19.672Z,115.80
2022-11-26T23:41:46.417Z,104.20
2022-11-26T23:45:13.678Z,131.70
2022-11-26T23:48:40.464Z,115.30
2022-11-26T23:52:07.394Z,115.00
2022-11-26T23:55:34.386Z,110.00
2022-11-26T23:59:03.066Z,108.20
